Terminal Aerodrome Forecast
Issued by NWS Raleigh/Durham, NC

Home | Current Version | Previous Version | Text Only | Print | Product List | Glossary On
Versions: 1 2 3 4 5 6 7 8 9 10 11 12 13 14 15 16 17 18 19 20 21 22 23 24 25 26 27 28 29 30 31 32 33
000
FTUS42 KRAH 211955 AAA
TAFGSO
TAF AMD
KGSO 211955Z 2120/2218 14003KT 3SM BR OVC004
      TEMPO 2120/2122 6SM BR OVC007
     FM212200 07003KT 2SM -SHRA BR OVC005
      TEMPO 2201/2204 06003KT 2SM SHRA OVC002
     FM220400 VRB03KT 2SM BR OVC004
      TEMPO 2206/2210 1/4SM FG VV001=

USA.gov is the U.S. government's official web portal to all federal, state and local government web resources and services.